Time;durP1;ratioP1;P1;durP2;ratioP2;P2;SDS_P1;SDS_P2;PMS_P1;PMS_P2;Temp;Humidity;BMP_temperature;BMP_pressure;BME280_temperature;BME280_humidity;BME280_pressure;Samples;Min_cycle;Max_cycle;Signal;HPM_P1;HPM_P2
2024/01/24 00:02:04;;;;;;;1.23;0.10;;;;;;;1.24;70.44;100192.94;5030599;28;20539;-78
2024/01/24 00:04:31;;;;;;;1.88;0.10;;;;;;;1.23;70.75;100193.78;5023832;28;20530;-79
2024/01/24 00:06:59;;;;;;;0.70;0.00;;;;;;;1.24;70.51;100195.50;5015980;28;20473;-78
2024/01/24 00:09:26;;;;;;;0.65;0.10;;;;;;;1.22;70.53;100185.19;5030271;28;20120;-78
2024/01/24 00:11:53;;;;;;;4.40;0.10;;;;;;;1.22;70.61;100179.16;5031383;28;20121;-77
2024/01/24 00:14:20;;;;;;;1.48;0.10;;;;;;;1.22;70.68;100164.59;5028733;28;20503;-77
2024/01/24 00:16:47;;;;;;;0.20;0.03;;;;;;;1.22;70.67;100168.84;5028224;28;20038;-78
2024/01/24 00:19:14;;;;;;;0.45;0.00;;;;;;;1.21;70.67;100167.13;5031713;28;20125;-78
2024/01/24 00:21:41;;;;;;;0.10;0.08;;;;;;;1.22;70.70;100168.84;5018331;28;20471;-79
2024/01/24 00:24:10;;;;;;;2.65;0.10;;;;;;;1.22;70.51;100169.75;5027739;28;20478;-77
2024/01/24 00:26:38;;;;;;;0.10;0.00;;;;;;;1.21;70.50;100162.84;5030142;28;20045;-78
2024/01/24 00:29:05;;;;;;;1.77;0.10;;;;;;;1.21;70.15;100156.84;5027397;28;20062;-77
2024/01/24 00:31:32;;;;;;;0.60;0.10;;;;;;;1.20;70.22;100142.25;5019182;28;20160;-75
2024/01/24 00:33:59;;;;;;;0.75;0.00;;;;;;;1.20;70.34;100134.50;5020320;28;20128;-76
2024/01/24 00:36:26;;;;;;;0.57;0.10;;;;;;;1.19;70.41;100140.50;5018068;28;20131;-76
2024/01/24 00:38:53;;;;;;;0.13;0.00;;;;;;;1.18;70.46;100128.47;5021167;28;20041;-76
2024/01/24 00:41:22;;;;;;;0.68;0.10;;;;;;;1.18;70.51;100110.44;5023043;28;20128;-76
2024/01/24 00:43:49;;;;;;;0.00;0.00;;;;;;;1.18;70.20;100095.84;5020421;28;20160;-76
2024/01/24 00:46:16;;;;;;;0.10;0.08;;;;;;;1.17;70.45;100099.28;5024389;28;20144;-75
2024/01/24 00:48:43;;;;;;;2.05;0.10;;;;;;;1.17;70.17;100088.13;5020136;28;20440;-77
2024/01/24 00:51:10;;;;;;;0.43;0.10;;;;;;;1.17;70.53;100070.94;5019095;28;20513;-76
2024/01/24 00:53:38;;;;;;;2.85;0.00;;;;;;;1.17;70.54;100062.34;5019441;28;20540;-76
2024/01/24 00:56:07;;;;;;;2.33;0.10;;;;;;;1.18;70.04;100064.06;5017758;28;20495;-76
2024/01/24 00:58:35;;;;;;;0.52;0.35;;;;;;;1.17;70.30;100060.63;5022452;28;20077;-75
2024/01/24 01:01:02;;;;;;;0.20;0.20;;;;;;;1.17;69.98;100052.03;5020886;28;20133;-76
2024/01/24 01:03:29;;;;;;;0.65;0.10;;;;;;;1.15;69.93;100038.28;5016006;28;20136;-76
2024/01/24 01:05:56;;;;;;;1.60;0.10;;;;;;;1.16;70.12;100024.53;5020283;28;20137;-76
2024/01/24 01:08:23;;;;;;;0.45;0.10;;;;;;;1.17;70.28;100015.97;5021995;28;21006;-76
2024/01/24 01:10:50;;;;;;;0.25;0.00;;;;;;;1.15;70.45;100004.78;5023753;28;20125;-76
2024/01/24 01:13:17;;;;;;;2.25;0.80;;;;;;;1.15;70.44;100000.50;5018202;28;20422;-75
2024/01/24 01:15:45;;;;;;;0.95;0.08;;;;;;;1.15;70.23;99999.63;5020281;28;20046;-76
2024/01/24 01:18:12;;;;;;;0.05;0.00;;;;;;;1.14;70.03;99997.94;5018292;28;20411;-75
2024/01/24 01:20:39;;;;;;;0.50;0.10;;;;;;;1.13;70.11;99986.72;5020247;28;20586;-76
2024/01/24 01:23:06;;;;;;;0.22;0.03;;;;;;;1.13;70.42;99973.84;5017511;28;20129;-75
2024/01/24 01:25:33;;;;;;;0.93;0.00;;;;;;;1.10;70.00;99978.16;5025518;28;20072;-76
2024/01/24 01:28:00;;;;;;;2.75;0.10;;;;;;;1.13;69.95;99973.00;5025840;28;20129;-76
2024/01/24 01:30:27;;;;;;;0.00;0.00;;;;;;;1.13;70.54;99962.69;5024595;28;20132;-76
2024/01/24 01:32:55;;;;;;;0.47;0.08;;;;;;;1.12;70.18;99953.25;5022001;28;20081;-75
2024/01/24 01:35:22;;;;;;;0.00;0.00;;;;;;;1.10;70.22;99945.50;5024449;28;20053;-76
2024/01/24 01:37:49;;;;;;;2.65;0.13;;;;;;;1.12;69.87;99935.22;5022828;28;20544;-75
2024/01/24 01:40:16;;;;;;;0.80;0.10;;;;;;;1.12;70.25;99940.38;5019953;28;20128;-80
2024/01/24 01:42:44;;;;;;;1.52;0.10;;;;;;;1.10;69.93;99924.03;5029503;28;20120;-79
2024/01/24 01:45:11;;;;;;;2.97;0.30;;;;;;;1.12;70.42;99930.06;5024655;28;20045;-79
2024/01/24 01:47:39;;;;;;;1.02;0.10;;;;;;;1.10;70.33;99934.34;5023700;28;20129;-79
2024/01/24 01:50:10;;;;;;;3.33;0.20;;;;;;;1.10;70.29;99916.31;5018224;28;20510;-80
2024/01/24 01:52:39;;;;;;;1.92;0.10;;;;;;;1.10;69.94;99919.75;5021092;28;20511;-79
2024/01/24 01:55:08;;;;;;;2.80;0.10;;;;;;;1.09;70.00;99905.16;5033570;28;20563;-79
2024/01/24 01:57:35;;;;;;;1.75;0.10;;;;;;;1.10;70.53;99903.44;5028814;28;20048;-79
2024/01/24 02:00:05;;;;;;;1.00;0.10;;;;;;;1.11;70.38;99898.31;5025941;28;20120;-80
2024/01/24 02:02:32;;;;;;;0.75;0.13;;;;;;;1.09;70.13;99889.69;5028614;28;20096;-80
2024/01/24 02:04:59;;;;;;;1.67;0.10;;;;;;;1.10;70.17;99885.41;5035076;28;20080;-79
2024/01/24 02:07:28;;;;;;;3.63;0.10;;;;;;;1.09;70.10;99889.69;5034715;28;20081;-79
2024/01/24 02:09:55;;;;;;;0.65;0.10;;;;;;;1.10;70.05;99877.69;5029645;28;20129;-79
2024/01/24 02:12:22;;;;;;;1.52;0.00;;;;;;;1.08;70.58;99871.66;5028252;28;20128;-79
2024/01/24 02:14:49;;;;;;;0.90;0.08;;;;;;;1.07;70.12;99857.91;5027209;28;20129;-80
2024/01/24 02:17:16;;;;;;;0.77;0.05;;;;;;;1.07;70.73;99864.78;5029279;28;20081;-79
2024/01/24 02:19:43;;;;;;;5.88;0.47;;;;;;;1.05;70.35;99846.78;5018981;28;20078;-80
2024/01/24 02:22:10;;;;;;;0.28;0.10;;;;;;;1.05;69.95;99843.31;5031523;28;20084;-79
2024/01/24 02:24:38;;;;;;;2.40;0.20;;;;;;;1.03;70.12;99839.03;5027679;28;20069;-79
2024/01/24 02:27:05;;;;;;;3.00;0.10;;;;;;;1.02;70.47;99839.91;5032490;28;20133;-79
2024/01/24 02:29:32;;;;;;;5.22;0.10;;;;;;;1.01;69.77;99830.44;5026092;28;21156;-80
2024/01/24 02:31:59;;;;;;;1.92;0.10;;;;;;;1.02;69.94;99821.88;5033288;28;20121;-79
2024/01/24 02:34:26;;;;;;;1.58;0.20;;;;;;;1.02;70.00;99819.28;5030124;28;20621;-79
2024/01/24 02:36:53;;;;;;;1.73;0.20;;;;;;;1.01;70.36;99814.97;5032154;28;20128;-79
2024/01/24 02:39:21;;;;;;;5.50;0.20;;;;;;;1.02;70.28;99811.56;5033322;28;20081;-79
2024/01/24 02:41:49;;;;;;;1.77;0.10;;;;;;;1.02;70.14;99801.25;5021095;28;20590;-76
2024/01/24 02:44:16;;;;;;;0.30;0.10;;;;;;;1.01;70.44;99799.53;5020335;28;20132;-76
2024/01/24 02:46:43;;;;;;;4.68;0.10;;;;;;;1.01;70.19;99799.53;5021500;28;20128;-75
2024/01/24 02:49:10;;;;;;;3.03;0.20;;;;;;;1.01;70.51;99788.38;5018772;28;20132;-76
2024/01/24 02:51:37;;;;;;;1.38;0.10;;;;;;;1.00;70.18;99784.94;5019044;28;20128;-74
2024/01/24 02:54:04;;;;;;;3.13;0.40;;;;;;;1.00;70.28;99782.38;5013391;28;20561;-73
2024/01/24 02:56:33;;;;;;;6.78;0.20;;;;;;;0.99;70.40;99779.78;5014845;28;20053;-72
2024/01/24 02:59:01;;;;;;;4.13;0.28;;;;;;;0.99;70.72;99770.34;5022085;28;20471;-73
2024/01/24 03:01:28;;;;;;;4.35;0.30;;;;;;;0.99;70.32;99757.47;5022316;28;20103;-72
2024/01/24 03:03:55;;;;;;;2.65;0.25;;;;;;;0.99;70.68;99760.06;5021137;28;20555;-72
2024/01/24 03:06:22;;;;;;;5.40;0.38;;;;;;;0.99;70.58;99752.31;5021563;28;20050;-72
2024/01/24 03:08:51;;;;;;;3.65;0.10;;;;;;;0.95;70.76;99730.00;5022308;28;20136;-72
2024/01/24 03:11:18;;;;;;;3.42;0.20;;;;;;;0.96;70.65;99730.84;5021904;28;20061;-72
2024/01/24 03:13:45;;;;;;;4.47;0.10;;;;;;;0.99;70.91;99746.28;5021525;28;20136;-72
2024/01/24 03:16:14;;;;;;;4.35;0.15;;;;;;;0.97;70.35;99730.84;5022845;28;20081;-73
2024/01/24 03:18:40;;;;;;;2.38;0.13;;;;;;;0.97;70.79;99725.69;5023659;28;20128;-72
2024/01/24 03:21:09;;;;;;;4.68;0.20;;;;;;;0.98;70.69;99717.09;5020411;28;20124;-72
2024/01/24 03:23:38;;;;;;;5.00;0.20;;;;;;;0.99;70.76;99705.06;5019804;28;20432;-72
2024/01/24 03:26:06;;;;;;;4.63;0.30;;;;;;;0.98;70.85;99691.34;5021046;28;20262;-72
2024/01/24 03:28:33;;;;;;;7.25;0.30;;;;;;;0.98;70.95;99690.50;5019175;28;22271;-72
2024/01/24 03:31:00;;;;;;;1.88;0.40;;;;;;;0.97;71.12;99679.34;5020227;28;20140;-72
2024/01/24 03:33:28;;;;;;;5.70;0.38;;;;;;;0.98;70.88;99673.31;5021251;28;20125;-72
2024/01/24 03:35:55;;;;;;;4.03;0.30;;;;;;;0.99;71.21;99674.16;5020860;28;20133;-72
2024/01/24 03:38:22;;;;;;;5.40;0.30;;;;;;;0.97;71.33;99663.03;5015671;28;20468;-72
2024/01/24 03:40:50;;;;;;;9.43;0.40;;;;;;;0.98;71.12;99659.59;5020889;28;20858;-72
2024/01/24 03:43:17;;;;;;;11.48;1.33;;;;;;;0.98;70.79;99647.56;5021194;28;20065;-72
2024/01/24 03:45:43;;;;;;;3.33;0.20;;;;;;;1.00;71.39;99645.00;5022773;28;20530;-73
2024/01/24 03:48:10;;;;;;;6.50;0.40;;;;;;;0.99;71.42;99644.16;5020547;28;20132;-72
2024/01/24 03:50:39;;;;;;;3.53;0.63;;;;;;;1.01;71.03;99641.56;5018912;28;20053;-77
2024/01/24 03:53:06;;;;;;;5.22;0.88;;;;;;;0.99;71.07;99623.53;5017257;28;20133;-77
2024/01/24 03:55:33;;;;;;;13.13;0.40;;;;;;;1.01;71.24;99638.97;5021409;28;20576;-77
2024/01/24 03:58:00;;;;;;;5.05;0.40;;;;;;;0.96;71.42;99615.81;5022124;28;20132;-78
2024/01/24 04:00:27;;;;;;;6.40;0.55;;;;;;;0.99;71.83;99628.69;5017826;28;20084;-75
2024/01/24 04:02:53;;;;;;;8.98;0.20;;;;;;;1.00;71.57;99617.53;5015590;28;20136;-75
2024/01/24 04:05:20;;;;;;;8.25;1.25;;;;;;;1.01;71.48;99605.50;5019007;28;20124;-75
2024/01/24 04:07:49;;;;;;;9.45;0.50;;;;;;;1.01;71.91;99602.91;5021817;28;20038;-76
2024/01/24 04:10:16;;;;;;;8.00;0.40;;;;;;;1.02;71.96;99602.94;5017471;28;20568;-75
2024/01/24 04:12:43;;;;;;;12.23;0.63;;;;;;;0.99;72.13;99578.88;5020784;28;20042;-76
2024/01/24 04:15:11;;;;;;;9.63;1.48;;;;;;;1.03;72.17;99572.88;5020024;28;20052;-75
2024/01/24 04:17:38;;;;;;;9.75;1.00;;;;;;;1.03;72.22;99555.69;5016101;28;20059;-75
2024/01/24 04:20:05;;;;;;;12.60;0.60;;;;;;;1.03;72.18;99537.66;5017930;28;20164;-75
2024/01/24 04:22:32;;;;;;;8.55;1.33;;;;;;;1.04;71.96;99530.78;5015177;28;20054;-75
2024/01/24 04:25:01;;;;;;;9.38;0.75;;;;;;;1.05;72.43;99521.34;5017804;28;20108;-75
2024/01/24 04:27:28;;;;;;;17.58;2.38;;;;;;;1.01;72.32;99510.19;5022613;28;20045;-75
2024/01/24 04:29:55;;;;;;;15.15;0.77;;;;;;;1.05;72.48;99503.31;5022191;28;20069;-75
2024/01/24 04:32:22;;;;;;;10.40;0.50;;;;;;;1.06;72.56;99502.47;5021523;28;20139;-75
2024/01/24 04:34:49;;;;;;;20.73;1.65;;;;;;;1.06;72.62;99500.75;5018125;28;20477;-75
2024/01/24 04:37:16;;;;;;;18.45;1.10;;;;;;;1.08;73.14;99493.00;5018905;28;20592;-75
2024/01/24 04:39:43;;;;;;;19.92;1.40;;;;;;;1.08;72.88;99490.41;5020610;28;20133;-75
2024/01/24 04:42:11;;;;;;;19.00;0.90;;;;;;;1.09;73.19;99482.69;5021593;28;20531;-75
2024/01/24 04:44:38;;;;;;;17.00;1.50;;;;;;;1.11;73.15;99477.56;5022878;28;20150;-75
2024/01/24 04:47:05;;;;;;;16.08;1.38;;;;;;;1.10;73.27;99462.94;5020376;28;20120;-75
2024/01/24 04:49:32;;;;;;;15.98;1.10;;;;;;;1.13;73.31;99462.91;5022865;28;20129;-75
2024/01/24 04:52:00;;;;;;;18.83;1.15;;;;;;;1.14;74.17;99444.03;5021374;28;20078;-75
2024/01/24 04:54:27;;;;;;;20.23;2.00;;;;;;;1.14;73.78;99447.47;5019941;28;20073;-74
2024/01/24 04:56:54;;;;;;;23.35;1.15;;;;;;;1.15;73.88;99436.28;5019686;28;20129;-75
2024/01/24 04:59:22;;;;;;;19.52;0.82;;;;;;;1.17;74.22;99434.56;5017520;28;20057;-75
2024/01/24 05:01:49;;;;;;;18.25;1.48;;;;;;;1.14;74.68;99424.28;5025425;28;20144;-72
2024/01/24 05:04:16;;;;;;;17.05;1.30;;;;;;;1.20;74.34;99434.53;5021419;28;20137;-72
2024/01/24 05:06:43;;;;;;;18.73;1.17;;;;;;;1.22;74.24;99429.38;5023497;28;20144;-72
2024/01/24 05:09:10;;;;;;;27.27;1.88;;;;;;;1.22;74.38;99409.63;5024049;28;20077;-72
2024/01/24 05:11:36;;;;;;;15.55;1.27;;;;;;;1.25;74.68;99411.34;5026228;28;20479;-72
2024/01/24 05:14:03;;;;;;;16.73;1.00;;;;;;;1.26;74.94;99413.03;5015472;28;20128;-72
2024/01/24 05:16:31;;;;;;;10.82;1.55;;;;;;;1.28;74.89;99406.16;5025110;28;20137;-71
2024/01/24 05:18:57;;;;;;;20.92;1.90;;;;;;;1.29;74.75;99391.56;5026687;28;20534;-72
2024/01/24 05:21:24;;;;;;;26.38;2.42;;;;;;;1.29;75.03;99379.53;5022169;28;20081;-72
2024/01/24 05:23:52;;;;;;;19.08;1.15;;;;;;;1.32;75.20;99373.50;5022633;28;20499;-72
2024/01/24 05:26:19;;;;;;;12.02;1.23;;;;;;;1.33;75.29;99363.16;5021803;28;20132;-72
2024/01/24 05:28:46;;;;;;;17.90;1.05;;;;;;;1.33;75.14;99347.69;5019868;28;20526;-72
2024/01/24 05:31:14;;;;;;;9.98;0.68;;;;;;;1.33;75.35;99329.66;5017315;28;20088;-73
2024/01/24 05:33:41;;;;;;;7.80;0.50;;;;;;;1.37;75.14;99318.47;5005248;28;20488;-74
2024/01/24 05:36:09;;;;;;;12.40;1.70;;;;;;;1.39;75.34;99297.81;5018912;28;20052;-72
2024/01/24 05:38:36;;;;;;;9.32;1.00;;;;;;;1.40;75.29;99289.25;5020621;28;20049;-72
2024/01/24 05:41:03;;;;;;;14.88;0.60;;;;;;;1.42;75.55;99280.63;5014292;28;20132;-72
2024/01/24 05:43:30;;;;;;;16.45;0.70;;;;;;;1.42;75.63;99260.03;5021372;28;20144;-72
2024/01/24 05:45:57;;;;;;;10.10;1.02;;;;;;;1.44;75.58;99250.53;5024739;28;20496;-72
2024/01/24 05:48:24;;;;;;;10.18;0.70;;;;;;;1.45;75.29;99247.09;5023739;28;20140;-73
2024/01/24 05:50:52;;;;;;;7.00;0.40;;;;;;;1.45;75.54;99234.22;5021238;28;20091;-72
2024/01/24 05:53:19;;;;;;;2.55;0.40;;;;;;;1.45;75.23;99223.91;5020113;28;20132;-72
2024/01/24 05:55:47;;;;;;;12.05;0.60;;;;;;;1.48;75.36;99223.88;5020222;28;20677;-72
2024/01/24 05:58:14;;;;;;;11.23;0.80;;;;;;;1.49;75.58;99219.56;5023036;28;20046;-72
2024/01/24 06:00:41;;;;;;;10.93;0.60;;;;;;;1.48;75.40;99208.41;5021762;28;20124;-72
2024/01/24 06:03:08;;;;;;;7.20;0.47;;;;;;;1.50;75.87;99198.06;5016139;28;20152;-72
2024/01/24 06:05:35;;;;;;;9.70;0.40;;;;;;;1.50;75.71;99172.28;5020347;28;20116;-72
2024/01/24 06:08:05;;;;;;;11.00;1.23;;;;;;;1.52;75.54;99177.44;5012186;28;20133;-72
2024/01/24 06:10:32;;;;;;;5.65;0.63;;;;;;;1.52;75.69;99162.81;5024178;28;20045;-79
2024/01/24 06:12:59;;;;;;;8.27;0.40;;;;;;;1.53;76.27;99146.47;5028325;28;20084;-79
2024/01/24 06:15:26;;;;;;;7.75;0.47;;;;;;;1.52;75.54;99141.34;5032134;28;20077;-78
2024/01/24 06:17:53;;;;;;;12.95;0.82;;;;;;;1.53;75.76;99128.44;5028727;28;20121;-78
2024/01/24 06:20:20;;;;;;;4.68;0.50;;;;;;;1.47;76.28;99110.47;5030579;28;20125;-79
2024/01/24 06:22:47;;;;;;;5.95;0.45;;;;;;;1.51;75.79;99119.91;5022305;28;20081;-78
2024/01/24 06:25:15;;;;;;;10.80;1.05;;;;;;;1.51;75.84;99108.75;5020754;28;20103;-79
2024/01/24 06:27:45;;;;;;;8.10;0.30;;;;;;;1.51;76.11;99104.44;5025650;28;20133;-79
2024/01/24 06:30:13;;;;;;;6.78;1.17;;;;;;;1.51;76.09;99103.59;5008979;28;20104;-79
2024/01/24 06:32:40;;;;;;;7.05;0.65;;;;;;;1.51;75.67;99094.13;4997923;28;20126;-79
2024/01/24 06:35:08;;;;;;;7.40;0.30;;;;;;;1.44;75.88;99085.59;5014484;28;21079;-78
2024/01/24 06:37:35;;;;;;;5.43;0.40;;;;;;;1.46;75.83;99083.84;5006409;28;20432;-79
2024/01/24 06:40:03;;;;;;;1.02;0.20;;;;;;;1.45;75.79;99074.44;5007355;28;20101;-82
2024/01/24 06:42:31;;;;;;;4.35;0.20;;;;;;;1.44;75.60;99071.84;5007597;28;20054;-82
2024/01/24 06:44:58;;;;;;;1.27;0.20;;;;;;;1.43;75.74;99065.84;5006568;28;20084;-80
2024/01/24 06:47:25;;;;;;;1.85;0.13;;;;;;;1.42;75.78;99060.72;5005800;28;20503;-83
2024/01/24 06:49:52;;;;;;;3.75;0.30;;;;;;;1.39;75.56;99048.75;5011863;28;20125;-85
2024/01/24 06:52:19;;;;;;;2.65;0.50;;;;;;;1.38;75.83;99043.59;5009036;28;20061;-87
2024/01/24 06:54:46;;;;;;;1.95;0.20;;;;;;;1.37;75.82;99031.59;5005526;28;20568;-85
2024/01/24 06:57:13;;;;;;;3.67;0.32;;;;;;;1.35;75.36;99017.88;5006240;28;20065;-83
2024/01/24 06:59:42;;;;;;;1.75;0.15;;;;;;;1.33;75.63;99012.72;4998552;28;20142;-83
2024/01/24 07:02:09;;;;;;;3.05;0.30;;;;;;;1.30;75.38;98997.31;4999365;28;21058;-84
2024/01/24 07:04:36;;;;;;;5.47;0.20;;;;;;;1.30;75.38;98999.03;5003294;28;20076;-84
2024/01/24 07:07:03;;;;;;;2.95;0.43;;;;;;;1.27;75.57;98986.19;4997631;28;20562;-83
2024/01/24 07:09:30;;;;;;;0.52;0.10;;;;;;;1.20;75.69;98973.41;5002835;28;20130;-83
2024/01/24 07:11:57;;;;;;;2.28;0.20;;;;;;;1.23;75.29;98975.94;5006219;28;20591;-85
2024/01/24 07:14:24;;;;;;;1.83;0.10;;;;;;;1.19;75.83;98963.13;5007501;28;20138;-86
2024/01/24 07:16:52;;;;;;;1.27;0.10;;;;;;;1.18;75.42;98951.13;5008142;28;20065;-87
2024/01/24 07:19:19;;;;;;;3.47;0.25;;;;;;;1.16;75.63;98945.13;5006088;28;20778;-85
2024/01/24 07:21:47;;;;;;;3.90;0.10;;;;;;;1.14;75.71;98931.44;5000625;28;20129;-76
2024/01/24 07:24:13;;;;;;;3.08;0.10;;;;;;;1.10;75.65;98922.88;5000836;28;20488;-77
2024/01/24 07:26:40;;;;;;;1.50;0.10;;;;;;;1.10;75.84;98922.88;5001782;28;20077;-77
2024/01/24 07:29:07;;;;;;;0.63;0.10;;;;;;;1.06;75.93;98912.66;5003584;28;20137;-77
2024/01/24 07:31:34;;;;;;;0.85;0.10;;;;;;;1.04;75.81;98910.09;5026851;28;20536;-77
2024/01/24 07:34:03;;;;;;;0.28;0.10;;;;;;;1.03;75.78;98895.53;5020377;28;20124;-77
2024/01/24 07:36:30;;;;;;;0.77;0.10;;;;;;;1.00;76.02;98886.13;5024122;28;20168;-77
2024/01/24 07:38:56;;;;;;;2.05;0.70;;;;;;;1.01;76.23;98881.81;5022411;28;20116;-77
2024/01/24 07:41:23;;;;;;;1.85;0.10;;;;;;;0.99;76.31;98876.69;5024511;28;20121;-76
2024/01/24 07:43:50;;;;;;;1.55;0.00;;;;;;;0.97;75.97;98868.13;5018468;28;20045;-77
2024/01/24 07:46:17;;;;;;;2.15;0.00;;;;;;;0.96;76.38;98858.72;5022151;28;20140;-77
2024/01/24 07:48:44;;;;;;;0.85;0.10;;;;;;;0.96;75.98;98868.16;5023320;28;20515;-77
2024/01/24 07:51:14;;;;;;;0.03;0.00;;;;;;;0.95;76.00;98862.16;5023762;28;20096;-77
2024/01/24 07:53:42;;;;;;;0.90;0.10;;;;;;;0.95;76.56;98862.16;5023801;28;20054;-77
2024/01/24 07:56:10;;;;;;;1.88;0.03;;;;;;;0.94;76.33;98855.31;5016562;28;20093;-78
2024/01/24 07:58:40;;;;;;;0.75;0.10;;;;;;;0.93;76.40;98852.75;5022762;28;20099;-77
2024/01/24 08:01:08;;;;;;;1.75;0.00;;;;;;;0.93;76.62;98850.16;5021782;28;20583;-77
2024/01/24 08:03:35;;;;;;;2.45;0.10;;;;;;;0.87;76.08;98835.66;5022853;28;20124;-76
2024/01/24 08:06:03;;;;;;;1.25;0.10;;;;;;;0.86;76.37;98831.41;5021916;28;20481;-77
2024/01/24 08:08:31;;;;;;;0.45;0.10;;;;;;;0.89;76.38;98825.34;5017391;28;20045;-77
2024/01/24 08:10:58;;;;;;;2.22;0.10;;;;;;;0.88;76.63;98823.63;5024541;28;20132;-77
2024/01/24 08:13:25;;;;;;;1.85;0.10;;;;;;;0.88;76.86;98819.34;5019181;28;20561;-77
2024/01/24 08:15:52;;;;;;;1.95;0.10;;;;;;;0.88;77.02;98816.78;5019983;28;20129;-77
2024/01/24 08:18:19;;;;;;;1.23;0.10;;;;;;;0.80;76.48;98798.03;5014600;28;20077;-77
2024/01/24 08:20:46;;;;;;;2.55;0.00;;;;;;;0.87;76.97;98807.34;5017942;28;20520;-77
2024/01/24 08:23:13;;;;;;;1.50;0.10;;;;;;;0.87;76.73;98797.03;5021286;28;20132;-77
2024/01/24 08:25:41;;;;;;;0.10;0.00;;;;;;;0.88;76.67;98792.75;5019250;28;20120;-77
2024/01/24 08:28:08;;;;;;;0.55;0.00;;;;;;;0.88;77.20;98791.03;5018296;28;20129;-77
2024/01/24 08:30:35;;;;;;;0.75;0.08;;;;;;;0.88;77.00;98777.28;5022800;28;20108;-74
2024/01/24 08:33:03;;;;;;;1.95;0.05;;;;;;;0.79;76.65;98752.53;5021471;28;20139;-75
2024/01/24 08:35:30;;;;;;;1.17;0.13;;;;;;;0.86;76.80;98764.47;5016741;28;20125;-75
2024/01/24 08:37:56;;;;;;;1.05;0.00;;;;;;;0.88;77.02;98769.56;5017973;28;20128;-76
2024/01/24 08:40:23;;;;;;;0.52;0.00;;;;;;;0.87;77.14;98761.00;5019103;28;20080;-81
2024/01/24 08:42:52;;;;;;;1.55;0.10;;;;;;;0.89;76.86;98761.00;5032333;28;20088;-80
2024/01/24 08:45:19;;;;;;;0.30;0.03;;;;;;;0.87;77.20;98758.44;5031584;28;20141;-81
2024/01/24 08:47:46;;;;;;;1.25;0.00;;;;;;;0.88;76.89;98752.41;5031009;28;20125;-80
2024/01/24 08:50:13;;;;;;;0.03;0.00;;;;;;;0.89;76.86;98743.81;5027847;28;20084;-80
2024/01/24 08:52:40;;;;;;;1.08;0.10;;;;;;;0.90;77.41;98742.09;5023758;28;20195;-81
2024/01/24 08:55:08;;;;;;;0.93;0.00;;;;;;;0.89;77.32;98728.38;5018042;28;20556;-81
2024/01/24 08:57:35;;;;;;;0.10;0.00;;;;;;;0.88;77.11;98726.69;5024128;28;20053;-81
2024/01/24 09:00:07;;;;;;;1.60;0.00;;;;;;;0.89;77.29;98718.06;5025461;28;20074;-80
2024/01/24 09:02:34;;;;;;;0.45;0.00;;;;;;;0.89;77.14;98705.19;5026682;28;20530;-81
2024/01/24 09:05:01;;;;;;;0.60;0.00;;;;;;;0.90;77.19;98699.16;5024118;28;20551;-81
2024/01/24 09:07:28;;;;;;;2.85;0.00;;;;;;;0.87;77.64;98688.91;5033175;28;20049;-80
2024/01/24 09:09:55;;;;;;;0.22;0.00;;;;;;;0.90;77.23;98686.28;5025427;28;20667;-81
2024/01/24 09:12:22;;;;;;;2.60;0.10;;;;;;;0.91;77.18;98684.59;5020071;28;20137;-80
2024/01/24 09:14:49;;;;;;;1.77;0.10;;;;;;;0.91;77.44;98677.69;5022320;28;20125;-80
2024/01/24 09:17:17;;;;;;;2.20;0.03;;;;;;;0.91;77.74;98669.97;5028604;28;20168;-80
2024/01/24 09:19:44;;;;;;;0.95;0.00;;;;;;;0.83;77.84;98651.25;5023411;28;20480;-79
2024/01/24 09:22:11;;;;;;;0.20;0.00;;;;;;;0.84;77.65;98642.63;5023448;28;20045;-78
2024/01/24 09:24:38;;;;;;;0.00;0.00;;;;;;;0.92;77.72;98661.38;5024746;28;20073;-80
2024/01/24 09:27:06;;;;;;;0.10;0.00;;;;;;;0.91;77.36;98646.81;5021498;28;20132;-83
2024/01/24 09:29:33;;;;;;;0.63;0.00;;;;;;;0.94;77.96;98644.19;5028498;28;20084;-81
2024/01/24 09:31:59;;;;;;;0.00;0.00;;;;;;;0.94;77.62;98638.19;5026180;28;20084;-81
2024/01/24 09:34:28;;;;;;;0.03;0.00;;;;;;;0.94;77.60;98623.56;5021435;28;20105;-80
2024/01/24 09:36:55;;;;;;;0.10;0.00;;;;;;;0.95;77.68;98621.84;5030050;28;20124;-80
2024/01/24 09:39:22;;;;;;;1.35;0.03;;;;;;;0.93;77.55;98611.56;5024336;28;20081;-77
2024/01/24 09:41:52;;;;;;;0.20;0.03;;;;;;;0.95;77.57;98614.13;5018453;28;20050;-80
2024/01/24 09:44:19;;;;;;;0.57;0.00;;;;;;;0.99;77.87;98615.75;5016186;28;20053;-76
2024/01/24 09:46:49;;;;;;;0.10;0.00;;;;;;;1.00;78.00;98607.16;5022940;28;20557;-75
2024/01/24 09:49:18;;;;;;;0.45;0.00;;;;;;;1.01;77.79;98598.56;5022470;28;20124;-77
2024/01/24 09:51:48;;;;;;;0.65;0.00;;;;;;;1.02;77.91;98595.97;5022583;28;20046;-77
2024/01/24 09:54:17;;;;;;;2.20;0.10;;;;;;;1.02;78.18;98580.53;5021508;28;20809;-77
2024/01/24 09:56:44;;;;;;;0.30;0.00;;;;;;;1.05;78.05;98579.63;5025154;28;20049;-76
2024/01/24 09:59:13;;;;;;;0.22;0.00;;;;;;;1.07;78.07;98574.41;5017066;28;20160;-76
2024/01/24 10:01:41;;;;;;;0.00;0.00;;;;;;;1.08;77.84;98566.69;5021298;28;20045;-76
2024/01/24 10:04:09;;;;;;;0.08;0.00;;;;;;;1.09;77.87;98550.34;5016162;28;20141;-75
2024/01/24 10:06:40;;;;;;;0.10;0.00;;;;;;;1.10;78.03;98546.03;5021893;28;20053;-75
2024/01/24 10:09:08;;;;;;;0.03;0.00;;;;;;;1.11;78.02;98546.00;5021944;28;20042;-75
2024/01/24 10:11:35;;;;;;;0.00;0.00;;;;;;;1.14;77.91;98533.06;5020104;28;20125;-74
2024/01/24 10:14:02;;;;;;;1.23;0.00;;;;;;;1.15;77.70;98527.03;5018120;28;20133;-74
2024/01/24 10:16:29;;;;;;;0.32;0.00;;;;;;;1.17;77.85;98527.00;5019376;28;20124;-74
2024/01/24 10:18:57;;;;;;;2.30;0.00;;;;;;;1.18;77.99;98528.69;5020190;28;20128;-75
2024/01/24 10:21:25;;;;;;;1.00;0.00;;;;;;;1.17;78.23;98527.00;5021093;28;20081;-75
2024/01/24 10:23:55;;;;;;;1.85;0.22;;;;;;;1.19;78.36;98528.69;5021348;28;20128;-75
2024/01/24 10:26:23;;;;;;;0.08;0.00;;;;;;;1.23;78.23;98526.88;5019441;28;20420;-76
2024/01/24 10:28:50;;;;;;;1.50;0.00;;;;;;;1.25;78.62;98514.81;5024307;28;20100;-75
2024/01/24 10:31:19;;;;;;;0.10;0.00;;;;;;;1.27;78.09;98507.88;5021733;28;20149;-75
2024/01/24 10:33:48;;;;;;;0.20;0.10;;;;;;;1.30;78.65;98506.97;5022091;28;20050;-75
2024/01/24 10:36:15;;;;;;;0.73;0.10;;;;;;;1.30;78.31;98497.50;5022225;28;20120;-75
2024/01/24 10:38:48;;;;;;;1.75;0.00;;;;;;;1.32;78.14;98500.91;5021496;28;20124;-76
2024/01/24 10:41:16;;;;;;;1.00;0.00;;;;;;;1.29;78.54;98485.53;5020953;28;20137;-75
2024/01/24 10:43:52;;;;;;;0.75;0.00;;;;;;;1.38;78.26;98489.63;5020392;28;20129;-75
2024/01/24 10:46:20;;;;;;;0.13;0.00;;;;;;;1.39;78.17;98483.59;5021320;28;20049;-74
2024/01/24 10:48:47;;;;;;;1.08;0.00;;;;;;;1.39;78.58;98479.31;5019109;28;20144;-74
2024/01/24 10:51:15;;;;;;;0.63;0.00;;;;;;;1.42;78.29;98471.50;5017426;28;20088;-75
2024/01/24 10:53:44;;;;;;;0.00;0.00;;;;;;;1.44;78.48;98464.56;5020370;28;20045;-75
2024/01/24 10:56:15;;;;;;;0.25;0.00;;;;;;;1.46;78.34;98457.66;5022285;28;20132;-75
2024/01/24 10:58:43;;;;;;;0.25;0.10;;;;;;;1.48;78.19;98447.31;5021533;28;20496;-75
2024/01/24 11:01:11;;;;;;;1.30;0.00;;;;;;;1.51;78.36;98454.16;5020762;28;20045;-85
2024/01/24 11:03:38;;;;;;;3.63;0.20;;;;;;;1.48;78.63;98440.44;5027423;28;20481;-84
2024/01/24 11:06:13;;;;;;;2.05;0.00;;;;;;;1.48;78.57;98448.16;5034457;28;20470;-84
2024/01/24 11:08:48;;;;;;;3.15;0.00;;;;;;;1.58;78.40;98460.84;5023019;28;20084;-84
2024/01/24 11:11:18;;;;;;;3.47;0.10;;;;;;;1.60;78.10;98465.06;5031124;28;20495;-84
2024/01/24 11:13:46;;;;;;;0.43;0.05;;;;;;;1.61;78.47;98455.59;5026618;28;20073;-83
2024/01/24 11:16:37;;;;;;;0.70;0.00;;;;;;;1.57;78.01;98448.84;5032835;28;20896;-84
2024/01/24 11:19:20;;;;;;;0.28;0.00;;;;;;;1.66;77.98;98448.63;5021359;28;20045;-86
2024/01/24 11:21:48;;;;;;;0.00;0.00;;;;;;;1.67;78.37;98445.97;5033217;28;20056;-85
2024/01/24 11:24:37;;;;;;;2.13;0.00;;;;;;;1.68;78.21;98457.16;5022422;28;20053;-86
2024/01/24 11:27:04;;;;;;;0.10;0.00;;;;;;;1.71;78.11;98446.78;5032273;28;20084;-86
2024/01/24 11:29:34;;;;;;;1.65;0.03;;;;;;;1.73;78.19;98439.84;5021419;28;20136;-81
2024/01/24 11:32:02;;;;;;;0.10;0.00;;;;;;;1.75;78.21;98434.66;5005321;28;20475;-83
2024/01/24 11:34:29;;;;;;;0.08;0.00;;;;;;;1.77;78.00;98433.75;5014054;28;20540;-82
2024/01/24 11:36:56;;;;;;;0.57;0.00;;;;;;;1.80;78.16;98435.41;5006767;28;20042;-85
2024/01/24 11:39:34;;;;;;;0.10;0.00;;;;;;;1.78;78.32;98416.53;5002199;28;20129;-75
2024/01/24 11:42:36;;;;;;;0.00;0.00;;;;;;;1.84;78.29;98427.53;5007419;28;20129;-79